Time;durP1;ratioP1;P1;durP2;ratioP2;P2;SDS_P1;SDS_P2;PMS_P1;PMS_P2;Temp;Humidity;BMP_temperature;BMP_pressure;BME280_temperature;BME280_humidity;BME280_pressure;Samples;Min_cycle;Max_cycle;Signal;HPM_P1;HPM_P2
2021/11/20 00:01:11;;;;;;;10.68;4.35;;;;;;;11.37;100.00;102862.13;5072108;28;20044;-31
2021/11/20 00:03:44;;;;;;;14.60;5.03;;;;;;;11.36;100.00;102864.06;5072489;28;20048;-33
2021/11/20 00:06:13;;;;;;;12.50;5.38;;;;;;;11.36;100.00;102863.22;5070963;28;20132;-32
2021/11/20 00:08:42;;;;;;;9.52;5.15;;;;;;;11.34;100.00;102855.09;5072300;28;20131;-32
2021/11/20 00:11:13;;;;;;;10.98;5.65;;;;;;;11.34;100.00;102855.09;5071652;28;20083;-29
2021/11/20 00:13:42;;;;;;;11.55;5.38;;;;;;;11.33;100.00;102846.97;5071882;28;20147;-31
2021/11/20 00:16:12;;;;;;;17.02;6.22;;;;;;;11.33;100.00;102849.75;5072024;28;20051;-35
2021/11/20 00:18:41;;;;;;;9.98;5.85;;;;;;;11.34;100.00;102843.91;5071953;28;20563;-32
2021/11/20 00:21:13;;;;;;;7.32;4.65;;;;;;;11.34;100.00;102841.13;5071103;28;20071;-30
2021/11/20 00:23:46;;;;;;;12.48;6.00;;;;;;;11.32;100.00;102829.34;5071870;28;20135;-30
2021/11/20 00:26:19;;;;;;;13.82;5.75;;;;;;;11.31;100.00;102830.44;5071445;28;20508;-31
2021/11/20 00:29:06;;;;;;;13.88;6.55;;;;;;;11.32;100.00;102831.28;5070125;28;20049;-31
2021/11/20 00:31:39;;;;;;;14.38;5.88;;;;;;;11.29;100.00;102827.06;5070242;28;20113;-32
2021/11/20 00:34:10;;;;;;;12.48;5.38;;;;;;;11.28;100.00;102825.38;5071074;28;20054;-31
2021/11/20 00:36:38;;;;;;;11.70;4.97;;;;;;;11.26;100.00;102833.16;5070318;28;20060;-32
2021/11/20 00:39:11;;;;;;;11.23;4.45;;;;;;;11.27;100.00;102839.59;5071438;28;20490;-30
2021/11/20 00:41:40;;;;;;;12.88;5.18;;;;;;;11.23;100.00;102828.06;5069423;28;20045;-31
2021/11/20 00:44:08;;;;;;;11.55;4.68;;;;;;;11.23;100.00;102822.47;5067817;28;20444;-32
2021/11/20 00:46:38;;;;;;;14.48;5.03;;;;;;;11.22;100.00;102820.78;5071333;28;20052;-34
2021/11/20 00:49:08;;;;;;;17.42;5.90;;;;;;;11.22;100.00;102817.16;5070830;28;20072;-33
2021/11/20 00:51:36;;;;;;;13.45;5.78;;;;;;;11.23;100.00;102816.88;5071276;28;20049;-32
2021/11/20 00:54:07;;;;;;;11.48;5.07;;;;;;;11.25;100.00;102822.22;5069806;28;20471;-31
2021/11/20 00:56:37;;;;;;;13.85;5.03;;;;;;;11.25;100.00;102820.28;5069592;28;20060;-32
2021/11/20 00:59:06;;;;;;;9.93;4.90;;;;;;;11.24;100.00;102818.59;5071135;28;20387;-31
2021/11/20 01:01:37;;;;;;;11.68;5.00;;;;;;;11.24;100.00;102810.19;5069944;28;20040;-31
2021/11/20 01:04:07;;;;;;;16.23;5.35;;;;;;;11.24;100.00;102812.16;5069487;28;20389;-30
2021/11/20 01:06:39;;;;;;;11.35;4.68;;;;;;;11.24;100.00;102807.41;5057767;28;20040;-33
2021/11/20 01:09:13;;;;;;;15.77;5.30;;;;;;;11.25;100.00;102808.25;5069378;28;20774;-31
2021/11/20 01:11:45;;;;;;;11.80;5.13;;;;;;;11.23;100.00;102811.31;5071076;28;20386;-32
2021/11/20 01:14:17;;;;;;;13.50;5.38;;;;;;;11.22;100.00;102815.19;5071312;28;20777;-36
2021/11/20 01:16:47;;;;;;;15.07;6.05;;;;;;;11.22;100.00;102817.16;5068899;28;20051;-32
2021/11/20 01:19:16;;;;;;;11.30;5.60;;;;;;;11.19;100.00;102815.72;5068975;28;20075;-31
2021/11/20 01:22:16;;;;;;;13.55;6.28;;;;;;;11.18;100.00;102813.19;5054617;28;20507;-32
2021/11/20 01:25:21;;;;;;;14.13;5.85;;;;;;;11.15;100.00;102808.97;5066151;28;20171;-34
2021/11/20 01:28:27;;;;;;;11.90;5.25;;;;;;;11.11;100.00;102802.19;5066138;28;20049;-30
2021/11/20 01:30:58;;;;;;;14.25;5.63;;;;;;;11.12;100.00;102803.88;5069112;28;20094;-30
2021/11/20 01:33:36;;;;;;;9.90;5.28;;;;;;;11.11;100.00;102802.19;5069365;28;20048;-34
2021/11/20 01:36:07;;;;;;;9.35;5.38;;;;;;;11.11;100.00;102796.59;5069382;28;20063;-30
2021/11/20 01:38:41;;;;;;;9.65;4.97;;;;;;;11.11;100.00;102807.78;5068810;28;20056;-38
2021/11/20 01:41:19;;;;;;;12.35;5.65;;;;;;;11.10;100.00;102799.66;5069789;28;20095;-37
2021/11/20 01:44:19;;;;;;;12.55;5.22;;;;;;;11.10;100.00;102805.22;5068513;28;20060;-31
2021/11/20 01:46:52;;;;;;;13.50;6.05;;;;;;;11.09;100.00;102798.78;5069640;28;20436;-30
2021/11/20 01:49:24;;;;;;;14.70;5.53;;;;;;;11.08;100.00;102794.31;5068982;28;20053;-31
2021/11/20 01:51:56;;;;;;;10.45;5.45;;;;;;;11.08;100.00;102799.03;5058698;28;20473;-32
2021/11/20 01:54:48;;;;;;;14.77;6.38;;;;;;;11.10;100.00;102800.50;5070444;28;20045;-36
2021/11/20 01:57:34;;;;;;;9.57;5.18;;;;;;;11.11;100.00;102796.59;5061749;28;20517;-33
2021/11/20 02:00:12;;;;;;;12.65;6.00;;;;;;;11.12;100.00;102809.47;5068617;28;20040;-32
2021/11/20 02:02:54;;;;;;;12.80;5.15;;;;;;;11.14;100.00;102801.69;5070611;28;20049;-36
2021/11/20 02:05:38;;;;;;;15.73;5.28;;;;;;;11.18;100.00;102796.44;5067870;28;20504;-35
2021/11/20 02:08:22;;;;;;;10.15;5.05;;;;;;;11.21;100.00;102790.31;5069511;28;20103;-31
2021/11/20 02:10:55;;;;;;;11.43;4.80;;;;;;;11.21;100.00;102777.19;5061349;28;20102;-36
2021/11/20 02:13:27;;;;;;;13.60;5.68;;;;;;;11.19;100.00;102773.78;5068463;28;20080;-31
2021/11/20 02:16:00;;;;;;;9.10;5.13;;;;;;;11.19;100.00;102771.00;5070436;28;20454;-31
2021/11/20 02:18:31;;;;;;;12.32;4.60;;;;;;;11.19;100.00;102781.34;5068818;28;20486;-31
2021/11/20 02:21:10;;;;;;;10.65;4.65;;;;;;;11.21;100.00;102770.75;5068557;28;20417;-31
2021/11/20 02:23:43;;;;;;;11.13;5.20;;;;;;;11.21;100.00;102777.19;5069272;28;20079;-30
2021/11/20 02:26:11;;;;;;;13.98;4.50;;;;;;;11.22;100.00;102770.47;5068736;28;20509;-30
2021/11/20 02:28:55;;;;;;;16.52;5.80;;;;;;;11.24;100.00;102765.50;5068699;28;20094;-31
2021/11/20 02:31:44;;;;;;;11.82;5.22;;;;;;;11.26;100.00;102754.06;5067309;28;20044;-31
2021/11/20 02:34:15;;;;;;;12.63;4.90;;;;;;;11.27;100.00;102764.97;5072072;28;20139;-30
2021/11/20 02:36:46;;;;;;;14.43;4.90;;;;;;;11.27;100.00;102770.56;5064863;28;20075;-30
2021/11/20 02:39:18;;;;;;;13.18;4.90;;;;;;;11.29;100.00;102773.97;5072237;28;20102;-34
2021/11/20 02:41:48;;;;;;;11.07;4.57;;;;;;;11.31;100.00;102766.16;5073067;28;20673;-29
2021/11/20 02:44:19;;;;;;;11.02;4.57;;;;;;;11.33;100.00;102758.38;5072130;28;20103;-31
2021/11/20 02:46:53;;;;;;;10.18;4.60;;;;;;;11.35;100.00;102761.75;5072349;28;20082;-31
2021/11/20 02:49:22;;;;;;;11.00;4.85;;;;;;;11.39;100.00;102757.31;5071676;28;20056;-32
2021/11/20 02:52:07;;;;;;;9.75;4.60;;;;;;;11.43;100.00;102754.00;5072123;28;20043;-32
2021/11/20 02:54:36;;;;;;;9.05;4.30;;;;;;;11.45;100.00;102746.22;5071977;28;20060;-32
2021/11/20 02:57:08;;;;;;;9.30;4.40;;;;;;;11.48;100.00;102751.28;5072294;28;20072;-31
2021/11/20 02:59:37;;;;;;;16.77;4.90;;;;;;;11.50;100.00;102754.66;5072234;28;20063;-30
2021/11/20 03:02:06;;;;;;;10.32;4.45;;;;;;;11.52;100.00;102756.09;5067521;28;20048;-31
2021/11/20 03:04:34;;;;;;;13.43;4.88;;;;;;;11.53;100.00;102749.41;5073527;28;20562;-32
2021/11/20 03:07:02;;;;;;;7.38;3.70;;;;;;;11.56;100.00;102750.84;5072985;28;20052;-31
2021/11/20 03:09:33;;;;;;;8.90;4.22;;;;;;;11.58;100.00;102745.84;5071545;28;20572;-31
2021/11/20 03:12:11;;;;;;;12.07;4.53;;;;;;;11.58;100.00;102741.09;5071697;28;20489;-31
2021/11/20 03:14:40;;;;;;;13.50;4.72;;;;;;;11.59;100.00;102736.34;5062986;28;20060;-35
2021/11/20 03:17:11;;;;;;;10.93;4.30;;;;;;;11.59;100.00;102731.56;5071304;28;20051;-32
2021/11/20 03:19:41;;;;;;;10.98;4.43;;;;;;;11.61;100.00;102736.91;5071949;28;20048;-30
2021/11/20 03:22:12;;;;;;;8.65;4.28;;;;;;;11.62;100.00;102730.22;5072712;28;20095;-30
2021/11/20 03:24:40;;;;;;;10.63;4.60;;;;;;;11.65;100.00;102732.50;5071190;28;20497;-31
2021/11/20 03:27:08;;;;;;;12.68;4.50;;;;;;;11.68;100.00;102737.56;5071268;28;20051;-30
2021/11/20 03:29:36;;;;;;;10.80;4.72;;;;;;;11.68;100.00;102718.84;5072187;28;20479;-38
2021/11/20 03:32:08;;;;;;;12.10;4.57;;;;;;;11.70;100.00;102727.81;5071558;28;20048;-36
2021/11/20 03:34:39;;;;;;;9.35;4.80;;;;;;;11.71;100.00;102711.88;5071303;28;20155;-38
2021/11/20 03:37:09;;;;;;;9.73;4.22;;;;;;;11.72;100.00;102710.78;5070949;28;20057;-31
2021/11/20 03:39:41;;;;;;;9.05;4.18;;;;;;;11.72;100.00;102708.81;5071298;28;20048;-30
2021/11/20 03:42:10;;;;;;;8.48;4.55;;;;;;;11.73;100.00;102712.47;5072117;28;20055;-30
2021/11/20 03:44:43;;;;;;;10.85;4.55;;;;;;;11.73;100.00;102706.88;5070547;28;20390;-31
2021/11/20 03:47:11;;;;;;;9.57;4.30;;;;;;;11.74;100.00;102705.75;5071240;28;20417;-32
2021/11/20 03:49:44;;;;;;;9.93;4.80;;;;;;;11.76;100.00;102702.72;5072394;28;20140;-31
2021/11/20 03:52:14;;;;;;;8.95;4.13;;;;;;;11.77;100.00;102702.47;5070509;28;20052;-32
2021/11/20 03:54:44;;;;;;;8.95;4.78;;;;;;;11.74;100.00;102695.44;5071156;28;20165;-33
2021/11/20 03:57:15;;;;;;;11.20;4.55;;;;;;;11.75;100.00;102696.28;5071133;28;20048;-30
2021/11/20 03:59:43;;;;;;;9.75;4.22;;;;;;;11.76;100.00;102692.41;5070101;28;20059;-31
2021/11/20 04:02:12;;;;;;;10.13;4.80;;;;;;;11.76;100.00;102694.31;5070787;28;20523;-31
2021/11/20 04:04:40;;;;;;;12.00;5.50;;;;;;;11.74;100.00;102686.19;5071964;28;20143;-31
2021/11/20 04:07:10;;;;;;;12.43;4.53;;;;;;;11.73;100.00;102679.75;5070961;28;20040;-31
2021/11/20 04:09:38;;;;;;;8.63;4.03;;;;;;;11.76;100.00;102683.13;5072215;28;20102;-31
2021/11/20 04:12:11;;;;;;;11.30;4.60;;;;;;;11.75;100.00;102685.09;5071508;28;20055;-31
2021/11/20 04:14:40;;;;;;;8.25;4.63;;;;;;;11.76;100.00;102688.72;5070661;28;20098;-31
2021/11/20 04:17:08;;;;;;;7.53;4.10;;;;;;;11.77;100.00;102693.25;5070454;28;20075;-30
2021/11/20 04:19:37;;;;;;;8.15;4.50;;;;;;;11.74;100.00;102678.66;5069986;28;20056;-31
2021/11/20 04:22:05;;;;;;;11.05;5.07;;;;;;;11.76;100.00;102684.00;5070664;28;20048;-30
2021/11/20 04:24:35;;;;;;;13.82;5.30;;;;;;;11.79;100.00;102680.66;5070091;28;20068;-30
2021/11/20 04:27:03;;;;;;;13.60;5.72;;;;;;;11.80;100.00;102684.31;5071261;28;20102;-30
2021/11/20 04:29:52;;;;;;;10.43;5.60;;;;;;;11.79;100.00;102680.66;5067387;28;20458;-30
2021/11/20 04:32:21;;;;;;;12.73;5.18;;;;;;;11.79;100.00;102672.28;5070656;28;20060;-30
2021/11/20 04:34:50;;;;;;;9.25;5.45;;;;;;;11.80;100.00;102671.16;5069649;28;20041;-31
2021/11/20 04:37:18;;;;;;;13.75;5.20;;;;;;;11.82;100.00;102671.75;5071795;28;20132;-31
2021/11/20 04:39:48;;;;;;;11.63;5.78;;;;;;;11.83;100.00;102664.19;5070058;28;20493;-33
2021/11/20 04:42:17;;;;;;;12.52;4.90;;;;;;;11.81;100.00;102669.22;5070487;28;20041;-30
2021/11/20 04:44:46;;;;;;;11.13;5.57;;;;;;;11.82;100.00;102668.94;5069522;28;20478;-30
2021/11/20 04:47:15;;;;;;;9.68;4.97;;;;;;;11.83;100.00;102664.19;5066452;28;20044;-34
2021/11/20 04:49:45;;;;;;;11.73;5.28;;;;;;;11.82;100.00;102668.09;5069931;28;20048;-30
2021/11/20 04:52:15;;;;;;;10.88;5.15;;;;;;;11.83;100.00;102667.00;5068640;28;20401;-32
2021/11/20 04:54:45;;;;;;;9.95;4.95;;;;;;;11.82;100.00;102668.09;5069153;28;20557;-34
2021/11/20 04:57:31;;;;;;;7.80;3.83;;;;;;;11.81;100.00;102663.63;5069628;28;20397;-31
2021/11/20 04:59:59;;;;;;;10.45;5.03;;;;;;;11.81;100.00;102667.25;5069791;28;20052;-30
2021/11/20 05:02:29;;;;;;;10.43;5.22;;;;;;;11.82;100.00;102656.91;5069242;28;20059;-30
2021/11/20 05:04:57;;;;;;;10.23;4.50;;;;;;;11.83;100.00;102658.59;5069720;28;20496;-33
2021/11/20 05:07:25;;;;;;;7.90;4.18;;;;;;;11.84;100.00;102646.31;5071284;28;20052;-31
2021/11/20 05:09:55;;;;;;;7.82;4.43;;;;;;;11.81;100.00;102633.69;5069471;28;20068;-31
2021/11/20 05:12:24;;;;;;;6.10;4.85;;;;;;;11.78;100.00;102628.66;5069362;28;20052;-32
2021/11/20 05:15:00;;;;;;;7.25;4.60;;;;;;;11.77;100.00;102620.53;5058416;28;20452;-31
2021/11/20 05:17:29;;;;;;;8.57;4.93;;;;;;;11.76;100.00;102625.28;5069504;28;20132;-32
2021/11/20 05:19:57;;;;;;;8.43;4.38;;;;;;;11.75;100.00;102626.34;5069740;28;20054;-31
2021/11/20 05:22:26;;;;;;;9.40;4.53;;;;;;;11.78;100.00;102630.59;5068948;28;20130;-37
2021/11/20 05:24:54;;;;;;;8.65;4.30;;;;;;;11.78;100.00;102628.66;5069588;28;20063;-37
2021/11/20 05:27:22;;;;;;;9.27;4.13;;;;;;;11.79;100.00;102621.13;5062364;28;20414;-36
2021/11/20 05:29:56;;;;;;;7.65;3.80;;;;;;;11.80;100.00;102632.00;5068709;28;20094;-33
2021/11/20 05:32:25;;;;;;;6.50;3.70;;;;;;;11.79;100.00;102621.94;5070681;28;20057;-31
2021/11/20 05:34:53;;;;;;;6.35;3.55;;;;;;;11.79;100.00;102624.72;5070202;28;20110;-33
2021/11/20 05:37:21;;;;;;;8.95;3.70;;;;;;;11.80;100.00;102623.63;5068293;28;20912;-32
2021/11/20 05:39:49;;;;;;;6.10;3.50;;;;;;;11.79;100.00;102613.53;5066918;28;20053;-33
2021/11/20 05:42:17;;;;;;;8.27;3.47;;;;;;;11.79;100.00;102612.72;5068653;28;20061;-30
2021/11/20 05:44:48;;;;;;;10.63;4.15;;;;;;;11.79;100.00;102596.75;5068630;28;20060;-32
2021/11/20 05:47:19;;;;;;;8.68;4.22;;;;;;;11.79;100.00;102593.94;5069334;28;20044;-31
2021/11/20 05:49:49;;;;;;;9.20;4.00;;;;;;;11.80;100.00;102601.25;5069490;28;20049;-31
2021/11/20 05:52:19;;;;;;;8.15;4.00;;;;;;;11.76;100.00;102594.50;5068853;28;20045;-32
2021/11/20 05:54:49;;;;;;;8.00;4.28;;;;;;;11.77;100.00;102600.94;5070679;28;20094;-30
2021/11/20 05:57:25;;;;;;;7.65;4.22;;;;;;;11.78;100.00;102609.09;5068656;28;20118;-30
2021/11/20 06:00:10;;;;;;;9.05;3.80;;;;;;;11.79;100.00;102596.75;5058482;28;20052;-30
2021/11/20 06:02:50;;;;;;;8.80;4.30;;;;;;;11.79;100.00;102596.75;5070180;28;20052;-33
2021/11/20 06:05:23;;;;;;;9.50;4.93;;;;;;;11.79;100.00;102588.38;5070608;28;20106;-29
2021/11/20 06:07:51;;;;;;;11.20;5.15;;;;;;;11.77;100.00;102585.00;5073084;28;20044;-31
2021/11/20 06:10:19;;;;;;;9.15;4.82;;;;;;;11.76;100.00;102580.53;5074386;28;20132;-30
2021/11/20 06:12:48;;;;;;;7.72;4.20;;;;;;;11.78;100.00;102589.50;5072071;28;20147;-32
2021/11/20 06:15:17;;;;;;;8.07;4.55;;;;;;;11.77;100.00;102579.41;5072943;28;20075;-32
2021/11/20 06:17:45;;;;;;;9.30;5.07;;;;;;;11.76;100.00;102580.53;5072407;28;20060;-31
2021/11/20 06:20:13;;;;;;;7.72;4.20;;;;;;;11.78;100.00;102583.91;5072216;28;20040;-31
2021/11/20 06:22:43;;;;;;;9.55;4.28;;;;;;;11.77;100.00;102584.16;5072805;28;20074;-33
2021/11/20 06:25:12;;;;;;;8.38;4.10;;;;;;;11.77;100.00;102581.38;5072454;28;20048;-31
2021/11/20 06:27:42;;;;;;;9.32;4.00;;;;;;;11.76;100.00;102574.06;5072179;28;20136;-31
2021/11/20 06:30:13;;;;;;;6.82;3.97;;;;;;;11.76;100.00;102569.34;5072431;28;20131;-31
2021/11/20 06:32:43;;;;;;;5.78;4.25;;;;;;;11.76;100.00;102569.34;5072559;28;20165;-32
2021/11/20 06:35:38;;;;;;;6.45;3.90;;;;;;;11.76;100.00;102566.53;5073695;28;20559;-31
2021/11/20 06:38:29;;;;;;;8.20;4.20;;;;;;;11.78;100.00;102561.53;5072402;28;20048;-30
2021/11/20 06:41:03;;;;;;;7.70;4.07;;;;;;;11.77;100.00;102568.22;5071551;28;20093;-30
2021/11/20 06:43:33;;;;;;;11.52;4.88;;;;;;;11.78;100.00;102567.13;5074064;28;20093;-33
2021/11/20 06:46:05;;;;;;;9.95;5.13;;;;;;;11.79;100.00;102577.19;5072069;28;20052;-33
2021/11/20 06:48:34;;;;;;;7.15;4.75;;;;;;;11.80;100.00;102569.63;5071932;28;20048;-31
2021/11/20 06:51:25;;;;;;;9.77;5.00;;;;;;;11.77;100.00;102559.00;5072380;28;20048;-31
2021/11/20 06:54:23;;;;;;;9.65;4.20;;;;;;;11.76;100.00;102562.88;5072519;28;21076;-31
2021/11/20 06:57:15;;;;;;;5.90;3.90;;;;;;;11.74;100.00;102558.38;5064726;28;20101;-31
2021/11/20 07:02:54;;;;;;;7.80;4.30;;;;;;;11.74;100.00;102572.38;5072012;28;21692;-31
2021/11/20 07:05:22;;;;;;;7.85;4.50;;;;;;;11.74;100.00;102563.97;5070937;28;20048;-32
2021/11/20 07:07:53;;;;;;;7.18;4.72;;;;;;;11.75;100.00;102567.63;5071017;28;20171;-31
2021/11/20 07:10:23;;;;;;;9.32;4.35;;;;;;;11.77;100.00;102559.00;5069199;28;20037;-33
2021/11/20 07:12:54;;;;;;;;;;;;;;;11.73;100.00;102558.66;5073444;28;20501;-33
2021/11/20 07:15:24;;;;;;;12.35;5.03;;;;;;;11.74;100.00;102563.13;5070687;28;19991;-35
2021/11/20 07:17:52;;;;;;;8.05;4.82;;;;;;;11.73;100.00;102548.31;5071706;28;20082;-37
2021/11/20 07:20:40;;;;;;;9.15;4.75;;;;;;;11.74;100.00;102551.94;5072317;28;20129;-34
2021/11/20 07:23:34;;;;;;;7.13;4.32;;;;;;;11.78;100.00;102557.91;5071949;28;20150;-29
2021/11/20 07:26:06;;;;;;;9.38;4.70;;;;;;;11.81;100.00;102554.53;5072543;28;20113;-31
2021/11/20 07:28:35;;;;;;;8.15;4.20;;;;;;;11.82;100.00;102551.47;5071164;28;20082;-31
2021/11/20 07:31:04;;;;;;;7.80;4.78;;;;;;;11.83;100.00;102558.75;5066799;28;20051;-30
2021/11/20 07:33:36;;;;;;;8.25;4.40;;;;;;;11.81;100.00;102549.78;5071153;28;20049;-30
2021/11/20 07:36:05;;;;;;;10.45;5.10;;;;;;;11.81;100.00;102540.56;5069861;28;20140;-30
2021/11/20 07:38:36;;;;;;;7.18;4.72;;;;;;;11.82;100.00;102539.44;5070799;28;20052;-30
2021/11/20 07:41:06;;;;;;;10.38;5.68;;;;;;;11.83;100.00;102529.94;5070543;28;20051;-32
2021/11/20 09:10:20;;;;;;;8.80;7.18;;;;;;;11.34;100.00;102469.38;5140793;27;20380;-41
2021/11/20 09:12:53;;;;;;;10.30;7.85;;;;;;;11.27;100.00;102465.94;5108003;28;20090;-35
2021/11/20 09:15:25;;;;;;;10.25;7.22;;;;;;;11.28;100.00;102467.63;5122238;27;20129;-38
2021/11/20 09:17:54;;;;;;;11.75;7.53;;;;;;;11.29;100.00;102474.91;5108500;28;20047;-39
2021/11/20 09:20:30;;;;;;;11.32;7.03;;;;;;;11.30;100.00;102464.59;5114427;27;20417;-39
2021/11/20 09:22:59;;;;;;;9.88;7.30;;;;;;;11.31;100.00;102455.94;5120695;28;20040;-34
2021/11/20 09:25:39;;;;;;;10.32;7.72;;;;;;;11.31;100.00;102453.13;5115356;28;20082;-37
2021/11/20 09:28:27;;;;;;;11.55;8.07;;;;;;;11.32;100.00;102452.03;5108193;28;20051;-33
2021/11/20 09:30:59;;;;;;;12.15;9.07;;;;;;;11.27;100.00;102448.34;5116323;28;20132;-36
2021/11/20 09:33:28;;;;;;;9.30;8.13;;;;;;;11.28;100.00;102448.06;5110006;27;20040;-40
2021/11/20 09:35:57;;;;;;;12.82;8.50;;;;;;;11.31;100.00;102455.94;5113639;28;20051;-32
2021/11/20 09:38:39;;;;;;;9.57;8.05;;;;;;;11.31;100.00;102455.94;5107713;27;20066;-37
2021/11/20 09:41:13;;;;;;;9.50;8.25;;;;;;;11.34;100.00;102454.56;5113917;28;20557;-37
2021/11/20 09:43:44;;;;;;;12.07;9.10;;;;;;;11.36;100.00;102450.41;5121269;28;20059;-37
2021/11/20 09:46:18;;;;;;;14.50;8.90;;;;;;;11.36;100.00;102460.75;5114971;28;20557;-39
2021/11/20 09:48:52;;;;;;;12.55;8.10;;;;;;;11.37;100.00;102459.63;5108297;28;20039;-34
2021/11/20 09:51:25;;;;;;;9.80;7.60;;;;;;;11.38;100.00;102448.19;5115893;28;20097;-36
2021/11/20 09:53:58;;;;;;;10.00;7.80;;;;;;;11.37;100.00;102465.22;5121949;28;20050;-36
2021/11/20 09:56:30;;;;;;;9.82;7.72;;;;;;;11.36;100.00;102456.00;5114604;28;20075;-35
2021/11/20 09:59:05;;;;;;;12.10;9.48;;;;;;;11.37;100.00;102454.88;5110970;27;20044;-32
2021/11/20 10:01:47;;;;;;;9.00;7.97;;;;;;;11.37;100.00;102463.28;5114335;28;20047;-40
2021/11/20 10:04:27;;;;;;;12.02;8.60;;;;;;;11.36;100.00;102457.94;5107942;28;20057;-35
2021/11/20 10:07:16;;;;;;;12.57;8.77;;;;;;;11.37;100.00;102457.69;5116809;27;20134;-37
2021/11/20 10:09:49;;;;;;;10.35;7.60;;;;;;;11.38;100.00;102452.94;5119267;27;20569;-35
2021/11/20 10:12:26;;;;;;;12.18;8.68;;;;;;;11.40;100.00;102450.69;5121114;27;20055;-35
2021/11/20 10:14:58;;;;;;;10.93;8.43;;;;;;;11.42;100.00;102451.25;5117007;27;20058;-36
2021/11/20 10:17:39;;;;;;;14.77;9.48;;;;;;;11.42;100.00;102444.84;5121516;27;20453;-38
2021/11/20 10:20:36;;;;;;;10.43;8.27;;;;;;;11.42;100.00;102444.84;5117541;27;20126;-32
2021/11/20 10:23:14;;;;;;;11.55;7.95;;;;;;;11.38;100.00;102430.56;5120244;27;20051;-42
2021/11/20 10:26:04;;;;;;;13.50;8.98;;;;;;;11.42;100.00;102428.91;5124391;27;20060;-28
2021/11/20 10:28:52;;;;;;;14.32;9.50;;;;;;;11.42;100.00;102425.25;5122103;27;20140;-34
2021/11/20 10:31:23;;;;;;;13.43;8.80;;;;;;;11.39;100.00;102416.31;5121577;27;20048;-39
2021/11/20 10:33:59;;;;;;;10.93;8.10;;;;;;;11.43;100.00;102412.97;5121662;27;20183;-40
2021/11/20 10:36:33;;;;;;;12.95;9.40;;;;;;;11.42;100.00;102408.50;5123503;27;20138;-41
2021/11/20 10:39:07;;;;;;;14.18;8.38;;;;;;;11.43;100.00;102410.19;5124788;27;20048;-33
2021/11/20 10:41:43;;;;;;;12.77;7.90;;;;;;;11.40;100.00;102404.00;5123678;27;20107;-44
2021/11/20 10:44:25;;;;;;;11.13;7.60;;;;;;;11.40;100.00;102404.00;5125127;27;20529;-33
2021/11/20 10:46:59;;;;;;;14.57;8.20;;;;;;;11.36;100.00;102393.66;5121651;27;20047;-38
2021/11/20 10:49:55;;;;;;;12.73;8.10;;;;;;;11.38;100.00;102394.25;5122731;27;20035;-39
2021/11/20 10:52:52;;;;;;;13.95;8.18;;;;;;;11.33;100.00;102389.44;5119927;27;20390;-39
2021/11/20 10:55:31;;;;;;;13.18;8.40;;;;;;;11.34;100.00;102390.28;5126316;27;20054;-38
2021/11/20 10:58:44;;;;;;;14.57;7.75;;;;;;;11.36;100.00;102374.94;5125834;27;20553;-37
2021/11/20 11:01:35;;;;;;;14.68;8.15;;;;;;;11.36;100.00;102382.47;5127251;27;20428;-43
2021/11/20 11:04:22;;;;;;;13.18;8.05;;;;;;;11.38;100.00;102380.25;5125064;27;20124;-35
2021/11/20 11:06:55;;;;;;;13.48;7.53;;;;;;;11.39;100.00;102379.13;5118316;27;20074;-37
2021/11/20 11:09:35;;;;;;;10.52;6.85;;;;;;;11.42;100.00;102372.16;5120601;27;20142;-33
2021/11/20 11:12:21;;;;;;;12.45;7.53;;;;;;;11.42;100.00;102377.75;5127339;27;20614;-37
2021/11/20 11:15:17;;;;;;;12.13;6.82;;;;;;;11.35;100.00;102373.25;5125406;27;20043;-36
2021/11/20 11:18:26;;;;;;;13.15;6.43;;;;;;;11.38;100.00;102361.53;5121807;27;20062;-35
2021/11/20 11:21:21;;;;;;;13.07;6.32;;;;;;;11.32;100.00;102348.63;5111858;27;20074;-36
2021/11/20 11:24:15;;;;;;;12.10;5.97;;;;;;;11.36;100.00;102348.94;5127655;27;20058;-39
2021/11/20 11:26:49;;;;;;;10.25;6.13;;;;;;;11.32;100.00;102339.41;5127197;27;20035;-39
2021/11/20 11:29:23;;;;;;;10.07;5.45;;;;;;;11.33;100.00;102339.13;5119826;27;20046;-34
2021/11/20 11:31:53;;;;;;;14.43;6.82;;;;;;;11.32;100.00;102328.22;5118778;27;20480;-36
2021/11/20 11:34:26;;;;;;;10.18;6.65;;;;;;;11.34;100.00;102331.59;5119345;27;20460;-34
2021/11/20 11:37:02;;;;;;;13.98;6.68;;;;;;;11.34;100.00;102315.66;5119256;27;20493;-35
2021/11/20 11:39:40;;;;;;;11.73;6.18;;;;;;;11.35;100.00;102311.75;5125214;27;20138;-32
2021/11/20 11:42:48;;;;;;;10.57;6.45;;;;;;;11.36;100.00;102299.47;5125197;27;20078;-41
2021/11/20 11:45:57;;;;;;;11.00;6.72;;;;;;;11.35;100.00;102299.75;5121103;27;20078;-40
2021/11/20 11:48:39;;;;;;;11.98;6.72;;;;;;;11.33;100.00;102291.63;5119667;27;20043;-36
2021/11/20 11:51:29;;;;;;;15.88;7.82;;;;;;;11.36;100.00;102284.66;5119356;27;20038;-40
2021/11/20 11:54:03;;;;;;;9.93;6.38;;;;;;;11.36;100.00;102277.13;5122078;27;20060;-31
2021/11/20 11:56:34;;;;;;;13.10;6.80;;;;;;;11.38;100.00;102288.03;5123212;27;20446;-34
2021/11/20 11:59:22;;;;;;;10.27;6.72;;;;;;;11.42;100.00;102291.09;5121817;27;20138;-43
2021/11/20 12:02:12;;;;;;;11.80;7.63;;;;;;;11.39;100.00;102292.47;5123469;27;20048;-36
2021/11/20 12:04:43;;;;;;;13.35;7.38;;;;;;;11.37;100.00;102278.81;5123725;27;20047;-38
2021/11/20 12:07:42;;;;;;;11.30;6.70;;;;;;;11.39;100.00;102276.56;5121119;27;20047;-30
2021/11/20 12:10:29;;;;;;;9.57;7.03;;;;;;;11.38;100.00;102277.69;5117714;27;20051;-37
2021/11/20 12:13:03;;;;;;;11.15;6.88;;;;;;;11.37;100.00;102272.38;5119406;27;20054;-38
2021/11/20 12:15:38;;;;;;;12.13;6.13;;;;;;;11.39;100.00;102268.16;5124512;27;20051;-38
2021/11/20 12:18:18;;;;;;;10.80;6.57;;;;;;;11.43;100.00;102267.63;5123879;27;20485;-36
2021/11/20 12:20:53;;;;;;;10.35;7.60;;;;;;;11.40;100.00;102255.03;5124443;27;20036;-35
2021/11/20 12:23:37;;;;;;;15.57;7.97;;;;;;;11.39;100.00;102248.59;5124657;27;20043;-37
2021/11/20 12:26:18;;;;;;;14.73;8.30;;;;;;;11.39;100.00;102251.41;5124119;27;20052;-39
2021/11/20 12:29:04;;;;;;;12.95;7.30;;;;;;;11.40;100.00;102239.09;5125608;27;20038;-34
2021/11/20 12:31:46;;;;;;;13.18;8.52;;;;;;;11.38;100.00;102238.56;5119033;27;20043;-36
2021/11/20 12:34:26;;;;;;;11.85;7.88;;;;;;;11.40;100.00;102230.72;5128022;27;20066;-32
2021/11/20 12:37:20;;;;;;;11.50;7.70;;;;;;;11.44;100.00;102230.19;5121182;27;20039;-37
2021/11/20 12:40:13;;;;;;;11.77;7.78;;;;;;;11.44;100.00;102227.38;5115755;27;20047;-37
2021/11/20 12:42:52;;;;;;;15.75;8.02;;;;;;;11.45;100.00;102217.88;5118803;27;20047;-35
2021/11/20 12:45:53;;;;;;;13.60;8.02;;;;;;;11.46;100.00;102211.19;5123434;27;20046;-32
2021/11/20 12:48:51;;;;;;;13.15;7.00;;;;;;;11.47;100.00;102204.50;5122998;27;20043;-38
2021/11/20 12:51:30;;;;;;;11.77;7.53;;;;;;;11.46;100.00;102200.00;5124531;27;20051;-38
2021/11/20 12:54:07;;;;;;;14.23;7.88;;;;;;;11.45;100.00;102204.75;5120715;27;20047;-38
2021/11/20 12:56:40;;;;;;;12.05;7.85;;;;;;;11.46;100.00;102188.81;5117570;28;20061;-34
2021/11/20 12:59:19;;;;;;;11.75;7.72;;;;;;;11.44;100.00;102180.72;5121419;28;20046;-31
2021/11/20 13:01:57;;;;;;;12.93;7.72;;;;;;;11.46;100.00;102177.66;5117119;27;20043;-33
2021/11/20 13:04:40;;;;;;;15.30;8.10;;;;;;;11.44;100.00;102169.53;5120563;28;20039;-31
2021/11/20 13:07:13;;;;;;;13.90;7.68;;;;;;;11.44;100.00;102169.53;5115956;28;20051;-38
2021/11/20 13:09:50;;;;;;;16.75;8.77;;;;;;;11.42;100.00;102162.53;5119881;27;20058;-36
2021/11/20 13:12:29;;;;;;;12.23;7.68;;;;;;;11.40;100.00;102158.06;5117729;28;20138;-34
2021/11/20 13:15:12;;;;;;;13.10;7.88;;;;;;;11.44;100.00;102160.31;5118722;28;20051;-37
2021/11/20 13:17:51;;;;;;;14.13;7.35;;;;;;;11.43;100.00;102148.28;5123738;28;20073;-41
2021/11/20 13:20:22;;;;;;;16.13;7.82;;;;;;;11.43;100.00;102144.66;5123761;28;20054;-38